createdAt,value
2023-05-14T00:00:02.825Z,25.02
2023-05-14T00:02:31.659Z,25.50
2023-05-14T00:05:01.339Z,29.52
2023-05-14T00:07:31.072Z,26.92
2023-05-14T00:09:59.562Z,19.98
2023-05-14T00:12:28.232Z,23.55
2023-05-14T00:14:57.037Z,27.17
2023-05-14T00:17:25.403Z,21.40
2023-05-14T00:19:53.728Z,20.45
2023-05-14T00:22:23.740Z,28.48
2023-05-14T00:24:52.002Z,22.75
2023-05-14T00:27:20.274Z,22.02
2023-05-14T00:29:48.513Z,21.33
2023-05-14T00:32:16.902Z,22.08
2023-05-14T00:34:45.154Z,22.38
2023-05-14T00:37:13.435Z,21.48
2023-05-14T00:39:43.451Z,22.88
2023-05-14T00:42:12.164Z,23.38
2023-05-14T00:44:40.437Z,21.90
2023-05-14T00:47:09.329Z,22.90
2023-05-14T00:49:40.056Z,21.80
2023-05-14T00:52:08.906Z,20.35
2023-05-14T00:54:37.652Z,22.75
2023-05-14T00:57:08.154Z,20.30
2023-05-14T00:59:36.926Z,22.77
2023-05-14T01:02:05.447Z,25.70
2023-05-14T01:04:35.045Z,26.45
2023-05-14T01:07:10.742Z,26.75
2023-05-14T01:09:47.447Z,23.98
2023-05-14T01:12:22.650Z,24.30
2023-05-14T01:14:58.566Z,25.30
2023-05-14T01:17:31.131Z,30.15
2023-05-14T01:20:00.424Z,31.95
2023-05-14T01:22:30.168Z,28.17
2023-05-14T01:24:58.545Z,36.83
2023-05-14T01:27:33.347Z,43.03
2023-05-14T01:30:09.013Z,34.63
2023-05-14T01:32:38.744Z,33.10
2023-05-14T01:35:09.438Z,40.13
2023-05-14T01:37:41.345Z,28.40
2023-05-14T01:40:12.723Z,33.30
2023-05-14T01:42:41.734Z,36.45
2023-05-14T01:45:11.676Z,45.05
2023-05-14T01:47:40.042Z,40.67
2023-05-14T01:50:08.779Z,33.22
2023-05-14T01:52:39.595Z,37.42
2023-05-14T01:55:09.078Z,37.53
2023-05-14T01:57:37.636Z,32.53
2023-05-14T02:00:07.358Z,32.10
2023-05-14T02:02:42.087Z,34.13
2023-05-14T02:05:14.039Z,33.30
2023-05-14T02:07:43.776Z,32.72
2023-05-14T02:10:12.313Z,29.88
2023-05-14T02:12:40.771Z,34.10
2023-05-14T02:15:11.155Z,32.28
2023-05-14T02:17:39.755Z,30.92
2023-05-14T02:20:10.420Z,30.35
2023-05-14T02:22:42.302Z,31.27
2023-05-14T02:25:12.652Z,26.88
2023-05-14T02:27:41.115Z,31.65
2023-05-14T02:30:11.081Z,32.85
2023-05-14T02:32:40.339Z,29.30
2023-05-14T02:35:09.809Z,28.25
2023-05-14T02:37:39.128Z,29.17
2023-05-14T02:40:09.249Z,28.38
2023-05-14T02:42:39.066Z,31.75
2023-05-14T02:45:08.514Z,32.70
2023-05-14T02:47:38.217Z,29.13
2023-05-14T02:50:08.283Z,32.80
2023-05-14T02:52:37.029Z,29.30
2023-05-14T02:55:06.881Z,33.97
2023-05-14T02:57:35.496Z,27.77
2023-05-14T03:00:06.730Z,26.75
2023-05-14T03:02:35.995Z,31.92
2023-05-14T03:05:04.908Z,34.95
2023-05-14T03:07:33.534Z,29.67
2023-05-14T03:10:01.816Z,28.08
2023-05-14T03:12:30.590Z,30.25
2023-05-14T03:14:58.801Z,31.00
2023-05-14T03:17:28.868Z,30.63
2023-05-14T03:19:57.888Z,31.85
2023-05-14T03:22:26.333Z,29.35
2023-05-14T03:24:54.953Z,29.90
2023-05-14T03:27:23.781Z,31.77
2023-05-14T03:29:52.395Z,26.77
2023-05-14T03:32:21.443Z,29.20
2023-05-14T03:34:51.303Z,32.20
2023-05-14T03:37:19.536Z,34.17
2023-05-14T03:39:47.940Z,33.90
2023-05-14T03:42:16.239Z,27.90
2023-05-14T03:44:44.864Z,32.38
2023-05-14T03:47:13.335Z,31.88
2023-05-14T03:49:41.814Z,28.85
2023-05-14T03:52:13.946Z,29.60
2023-05-14T03:57:13.368Z,30.83
2023-05-14T03:59:42.499Z,34.58
2023-05-14T04:02:11.030Z,34.38
2023-05-14T04:04:39.383Z,41.05
2023-05-14T04:07:08.904Z,52.72
2023-05-14T04:09:38.650Z,35.15
2023-05-14T04:12:08.109Z,39.67
2023-05-14T04:14:36.815Z,132.43
2023-05-14T04:17:05.480Z,99.15
2023-05-14T04:19:33.787Z,44.67
2023-05-14T04:22:02.112Z,192.18
2023-05-14T04:24:30.719Z,112.60
2023-05-14T04:27:00.593Z,96.22
2023-05-14T04:29:28.883Z,117.43
2023-05-14T04:31:57.797Z,223.95
2023-05-14T04:34:26.451Z,88.95
2023-05-14T04:36:54.737Z,122.95
2023-05-14T04:39:23.496Z,139.07
2023-05-14T04:41:51.814Z,264.48
2023-05-14T04:44:21.534Z,221.98
2023-05-14T04:46:49.864Z,215.02
2023-05-14T04:49:21.017Z,250.20
2023-05-14T04:51:49.684Z,138.25
2023-05-14T04:54:17.994Z,163.52
2023-05-14T04:56:46.261Z,166.85
2023-05-14T04:59:14.595Z,61.35
2023-05-14T05:01:45.635Z,124.03
2023-05-14T05:04:14.282Z,143.70
2023-05-14T05:06:42.595Z,235.88
2023-05-14T05:09:10.939Z,147.32
2023-05-14T05:11:39.747Z,138.02
2023-05-14T05:14:07.977Z,114.18
2023-05-14T05:16:36.648Z,203.73
2023-05-14T05:19:06.623Z,204.73
2023-05-14T05:21:35.470Z,138.40
2023-05-14T05:24:03.764Z,160.95
2023-05-14T05:26:32.013Z,166.63
2023-05-14T05:29:01.032Z,173.57
2023-05-14T05:31:29.374Z,124.15
2023-05-14T05:33:57.823Z,138.13
2023-05-14T05:36:28.812Z,66.93
2023-05-14T05:38:57.604Z,149.13
2023-05-14T05:41:26.723Z,145.00
2023-05-14T05:43:55.100Z,161.00
2023-05-14T05:46:23.550Z,183.20
2023-05-14T05:48:53.338Z,115.15
2023-05-14T05:51:21.698Z,224.32
2023-05-14T05:53:51.343Z,205.57
2023-05-14T05:56:19.613Z,161.88
2023-05-14T05:58:47.906Z,132.40
2023-05-14T06:01:16.231Z,61.50
2023-05-14T06:03:46.917Z,79.25
2023-05-14T06:06:16.744Z,88.50
2023-05-14T06:08:45.019Z,77.97
2023-05-14T06:11:17.072Z,100.03
2023-05-14T06:13:45.502Z,114.88
2023-05-14T06:16:14.102Z,109.88
2023-05-14T06:18:42.528Z,83.47
2023-05-14T06:21:10.872Z,95.05
2023-05-14T06:23:39.172Z,73.07
2023-05-14T06:26:07.839Z,154.40
2023-05-14T06:28:37.600Z,102.90
2023-05-14T06:31:06.051Z,72.03
2023-05-14T06:33:34.376Z,80.53
2023-05-14T06:36:07.905Z,38.75
2023-05-14T06:38:36.173Z,30.17
2023-05-14T06:41:04.408Z,34.17
2023-05-14T06:43:32.669Z,34.55
2023-05-14T06:46:02.653Z,33.97
2023-05-14T06:48:31.098Z,33.85
2023-05-14T06:50:59.540Z,32.20
2023-05-14T06:53:27.869Z,29.35
2023-05-14T06:55:56.472Z,31.20
2023-05-14T06:58:24.691Z,29.67
2023-05-14T07:00:52.938Z,34.88
2023-05-14T07:03:23.063Z,27.15
2023-05-14T07:05:52.029Z,29.30
2023-05-14T07:08:20.261Z,35.60
2023-05-14T07:10:48.674Z,30.20
2023-05-14T07:13:17.186Z,32.13
2023-05-14T07:15:45.415Z,24.23
2023-05-14T07:18:13.869Z,30.95
2023-05-14T07:20:43.629Z,26.20
2023-05-14T07:23:12.251Z,25.42
2023-05-14T07:25:40.619Z,23.80
2023-05-14T07:28:08.924Z,24.27
2023-05-14T07:30:37.551Z,22.42
2023-05-14T07:33:05.955Z,23.55
2023-05-14T07:35:34.302Z,19.88
2023-05-14T07:38:05.810Z,24.05
2023-05-14T07:40:34.484Z,19.07
2023-05-14T07:43:02.729Z,19.40
2023-05-14T07:45:31.048Z,24.98
2023-05-14T07:47:59.442Z,18.45
2023-05-14T07:50:28.139Z,18.17
2023-05-14T07:52:56.380Z,18.35
2023-05-14T07:55:26.114Z,24.27
2023-05-14T07:57:54.744Z,23.17
2023-05-14T08:00:23.573Z,21.08
2023-05-14T08:02:52.547Z,22.27
2023-05-14T08:05:21.098Z,24.02
2023-05-14T08:07:49.710Z,22.55
2023-05-14T08:10:18.004Z,27.95
2023-05-14T08:12:48.033Z,24.27
2023-05-14T08:15:16.520Z,24.52
2023-05-14T08:17:44.820Z,23.83
2023-05-14T08:20:13.436Z,21.45
2023-05-14T08:22:41.758Z,24.42
2023-05-14T08:25:10.629Z,27.80
2023-05-14T08:27:38.907Z,27.75
2023-05-14T08:30:09.693Z,23.00
2023-05-14T08:32:38.668Z,23.48
2023-05-14T08:35:08.430Z,22.42
2023-05-14T08:37:36.654Z,25.48
2023-05-14T08:40:05.408Z,22.73
2023-05-14T08:42:34.138Z,27.48
2023-05-14T08:45:03.748Z,28.00
2023-05-14T08:47:33.726Z,26.17
2023-05-14T08:50:05.050Z,23.27
2023-05-14T08:52:34.166Z,23.38
2023-05-14T08:55:05.398Z,24.42
2023-05-14T08:57:35.164Z,20.60
2023-05-14T09:00:08.417Z,18.58
2023-05-14T09:02:38.801Z,18.52
2023-05-14T09:05:09.441Z,18.15
2023-05-14T09:07:38.117Z,21.25
2023-05-14T09:10:09.102Z,21.13
2023-05-14T09:12:37.697Z,20.65
2023-05-14T09:15:07.355Z,18.70
2023-05-14T09:17:37.564Z,19.02
2023-05-14T09:20:07.319Z,19.58
2023-05-14T09:22:36.202Z,18.98
2023-05-14T09:25:06.990Z,16.33
2023-05-14T09:27:35.702Z,17.38
2023-05-14T09:30:09.683Z,14.55
2023-05-14T09:32:41.108Z,16.48
2023-05-14T09:35:18.521Z,17.75
2023-05-14T09:37:49.060Z,18.50
2023-05-14T09:40:18.849Z,14.70
2023-05-14T09:42:48.307Z,16.65
2023-05-14T09:45:17.542Z,15.80
2023-05-14T09:47:47.553Z,13.95
2023-05-14T09:50:16.020Z,16.23
2023-05-14T09:52:44.338Z,16.08
2023-05-14T09:55:12.900Z,12.60
2023-05-14T09:57:41.260Z,15.63
2023-05-14T10:00:12.868Z,15.45
2023-05-14T10:02:43.208Z,15.20
2023-05-14T10:05:14.018Z,14.20
2023-05-14T10:07:46.386Z,16.63
2023-05-14T10:10:17.824Z,15.75
2023-05-14T10:12:52.574Z,13.80
2023-05-14T10:15:25.268Z,14.05
2023-05-14T10:17:58.984Z,14.88
2023-05-14T10:20:30.021Z,16.70
2023-05-14T10:22:59.442Z,17.90
2023-05-14T10:25:28.432Z,12.27
2023-05-14T10:27:57.178Z,10.82
2023-05-14T10:30:26.199Z,13.73
2023-05-14T10:33:10.370Z,14.95
2023-05-14T10:36:01.788Z,11.75
2023-05-14T10:38:30.859Z,16.13
2023-05-14T10:41:04.425Z,11.25
2023-05-14T10:43:38.672Z,13.77
2023-05-14T10:46:08.339Z,11.23
2023-05-14T10:48:38.750Z,10.30
2023-05-14T10:51:11.636Z,9.02
2023-05-14T10:53:41.703Z,10.32
2023-05-14T10:56:11.408Z,13.10
2023-05-14T10:58:41.641Z,14.23
2023-05-14T11:01:13.233Z,9.35
2023-05-14T11:03:43.319Z,13.45
2023-05-14T11:06:15.561Z,8.95
2023-05-14T11:08:52.746Z,8.93
2023-05-14T11:11:21.887Z,9.43
2023-05-14T11:13:51.910Z,9.13
2023-05-14T11:16:24.260Z,9.30
2023-05-14T11:19:03.501Z,11.60
2023-05-14T11:21:34.005Z,8.95
2023-05-14T11:24:03.855Z,7.00
2023-05-14T11:26:33.179Z,9.57
2023-05-14T11:29:01.688Z,8.75
2023-05-14T11:31:30.134Z,9.55
2023-05-14T11:33:58.529Z,7.63
2023-05-14T11:36:26.751Z,12.63
2023-05-14T11:38:56.455Z,7.55
2023-05-14T11:41:26.406Z,7.93
2023-05-14T11:43:54.946Z,9.85
2023-05-14T11:46:23.915Z,7.15
2023-05-14T11:48:52.526Z,8.30
2023-05-14T11:51:23.137Z,11.68
2023-05-14T11:53:51.366Z,8.10
2023-05-14T11:56:22.665Z,7.50
2023-05-14T11:58:51.050Z,8.25
2023-05-14T12:01:19.636Z,6.65
2023-05-14T12:03:48.042Z,6.53
2023-05-14T12:06:16.317Z,7.10
2023-05-14T12:08:44.530Z,7.60
2023-05-14T12:11:14.210Z,6.65
2023-05-14T12:13:43.863Z,8.00
2023-05-14T12:16:14.235Z,5.55
2023-05-14T12:18:44.547Z,7.00
2023-05-14T12:21:13.392Z,6.80
2023-05-14T12:23:42.060Z,5.90
2023-05-14T12:26:10.874Z,5.35
2023-05-14T12:28:43.495Z,6.55
2023-05-14T12:31:13.451Z,7.50
2023-05-14T12:33:43.027Z,4.75
2023-05-14T12:36:21.094Z,4.18
2023-05-14T12:38:50.658Z,6.75
2023-05-14T12:41:18.951Z,4.70
2023-05-14T12:43:49.991Z,7.85
2023-05-14T12:46:19.717Z,6.22
2023-05-14T12:48:48.828Z,6.13
2023-05-14T12:51:18.946Z,5.90
2023-05-14T12:53:47.243Z,6.05
2023-05-14T12:56:16.143Z,5.38
2023-05-14T12:58:44.323Z,5.47
2023-05-14T13:01:12.999Z,5.68
2023-05-14T13:03:42.887Z,5.28
2023-05-14T13:06:11.123Z,5.43
2023-05-14T13:08:40.534Z,3.97
2023-05-14T13:11:11.556Z,3.28
2023-05-14T13:13:39.920Z,6.07
2023-05-14T13:16:08.741Z,3.38
2023-05-14T13:18:37.111Z,3.85
2023-05-14T13:21:07.011Z,5.65
2023-05-14T13:23:36.052Z,4.72
2023-05-14T13:26:04.616Z,8.77
2023-05-14T13:28:33.053Z,4.35
2023-05-14T13:31:09.152Z,5.25
2023-05-14T13:33:38.624Z,7.38
2023-05-14T13:36:09.303Z,6.50
2023-05-14T13:38:37.611Z,12.10
2023-05-14T13:41:06.251Z,6.40
2023-05-14T13:43:35.883Z,6.70
2023-05-14T13:46:06.112Z,5.78
2023-05-14T13:48:34.481Z,5.88
2023-05-14T13:51:02.877Z,5.78
2023-05-14T13:53:32.628Z,4.97
2023-05-14T13:56:01.916Z,7.40
2023-05-14T13:58:30.192Z,5.45
2023-05-14T14:00:58.492Z,11.70
2023-05-14T14:03:26.766Z,7.20
2023-05-14T14:05:55.007Z,7.10
2023-05-14T14:08:24.514Z,7.13
2023-05-14T14:10:55.833Z,6.38
2023-05-14T14:13:24.877Z,7.33
2023-05-14T14:15:55.936Z,6.47
2023-05-14T14:18:25.873Z,7.65
2023-05-14T14:20:54.138Z,7.38
2023-05-14T14:23:22.315Z,6.40
2023-05-14T14:25:50.748Z,9.00
2023-05-14T14:28:20.452Z,5.93
2023-05-14T14:30:48.731Z,4.85
2023-05-14T14:33:17.073Z,6.38
2023-05-14T14:35:45.642Z,5.72
2023-05-14T14:38:15.459Z,5.93
2023-05-14T14:40:43.678Z,8.23
2023-05-14T14:43:11.848Z,7.25
2023-05-14T14:45:42.947Z,6.00
2023-05-14T14:48:25.523Z,6.90
2023-05-14T14:50:54.413Z,5.82
2023-05-14T14:53:23.216Z,6.95
2023-05-14T14:55:52.296Z,6.15
2023-05-14T14:58:22.030Z,6.88
2023-05-14T15:00:55.091Z,7.10
2023-05-14T15:03:26.873Z,7.53
2023-05-14T15:05:55.871Z,8.27
2023-05-14T15:08:27.747Z,6.65
2023-05-14T15:10:59.620Z,7.85
2023-05-14T15:13:28.631Z,5.68
2023-05-14T15:15:59.000Z,7.50
2023-05-14T15:18:27.727Z,5.90
2023-05-14T15:20:57.649Z,8.23
2023-05-14T15:23:28.905Z,7.32
2023-05-14T15:25:57.176Z,7.57
2023-05-14T15:28:25.365Z,7.18
2023-05-14T15:30:53.661Z,6.45
2023-05-14T15:33:24.075Z,8.85
2023-05-14T15:35:52.613Z,6.22
2023-05-14T15:38:20.704Z,7.28
2023-05-14T15:40:48.977Z,6.40
2023-05-14T15:43:17.147Z,6.47
2023-05-14T15:45:46.565Z,6.10
2023-05-14T15:48:15.364Z,5.85
2023-05-14T15:50:45.132Z,10.27
2023-05-14T15:53:13.307Z,6.63
2023-05-14T15:55:41.978Z,6.00
2023-05-14T15:58:10.472Z,6.90
2023-05-14T16:00:38.641Z,8.82
2023-05-14T16:03:07.216Z,7.60
2023-05-14T16:05:35.706Z,8.15
2023-05-14T16:08:05.244Z,9.27
2023-05-14T16:10:33.444Z,9.30
2023-05-14T16:13:01.719Z,7.80
2023-05-14T16:15:30.193Z,9.20
2023-05-14T16:17:58.667Z,10.38
2023-05-14T16:20:26.864Z,9.52
2023-05-14T16:22:54.975Z,9.27
2023-05-14T16:25:24.771Z,9.18
2023-05-14T16:27:52.980Z,9.77
2023-05-14T16:30:21.158Z,10.88
2023-05-14T16:32:49.693Z,7.95
2023-05-14T16:35:18.308Z,8.15
2023-05-14T16:37:48.086Z,8.23
2023-05-14T16:40:16.499Z,10.77
2023-05-14T16:42:49.055Z,13.38
2023-05-14T16:45:17.549Z,8.23
2023-05-14T16:47:46.000Z,14.55
2023-05-14T16:50:14.534Z,11.23
2023-05-14T16:52:43.664Z,11.02
2023-05-14T16:55:12.228Z,9.52
2023-05-14T16:57:40.923Z,10.40
2023-05-14T17:00:12.307Z,12.20
2023-05-14T17:02:40.572Z,11.67
2023-05-14T17:05:09.680Z,10.52
2023-05-14T17:07:39.625Z,10.55
2023-05-14T17:10:08.906Z,9.60
2023-05-14T17:12:37.088Z,10.48
2023-05-14T17:15:06.203Z,9.43
2023-05-14T17:17:36.400Z,10.23
2023-05-14T17:20:06.422Z,8.93
2023-05-14T17:22:34.708Z,12.70
2023-05-14T17:25:02.985Z,8.85
2023-05-14T17:27:33.320Z,8.25
2023-05-14T17:30:01.833Z,10.40
2023-05-14T17:32:31.207Z,6.88
2023-05-14T17:35:01.137Z,7.80
2023-05-14T17:37:29.456Z,8.57
2023-05-14T17:39:58.613Z,8.95
2023-05-14T17:42:26.886Z,10.65
2023-05-14T17:44:56.376Z,10.38
2023-05-14T17:47:24.547Z,8.88
2023-05-14T17:49:53.105Z,10.10
2023-05-14T17:52:22.830Z,11.07
2023-05-14T17:54:51.385Z,13.25
2023-05-14T17:57:19.699Z,8.52
2023-05-14T17:59:47.838Z,14.93
2023-05-14T18:02:16.064Z,10.77
2023-05-14T18:04:44.264Z,8.32
2023-05-14T18:07:12.487Z,8.45
2023-05-14T18:09:42.430Z,9.40
2023-05-14T18:12:11.013Z,9.35
2023-05-14T18:14:39.224Z,6.78
2023-05-14T18:17:07.529Z,10.07
2023-05-14T18:19:36.707Z,6.55
2023-05-14T18:22:05.330Z,7.47
2023-05-14T18:24:33.599Z,7.43
2023-05-14T18:27:03.547Z,10.38
2023-05-14T18:29:31.747Z,6.65
2023-05-14T18:32:00.896Z,6.07
2023-05-14T18:34:29.245Z,6.93
2023-05-14T18:36:57.902Z,8.77
2023-05-14T18:39:26.191Z,6.22
2023-05-14T18:41:55.217Z,20.83
2023-05-14T18:44:24.908Z,9.48
2023-05-14T18:46:53.447Z,6.78
2023-05-14T18:49:22.099Z,5.28
2023-05-14T18:51:50.460Z,6.90
2023-05-14T18:54:18.932Z,6.82
2023-05-14T18:56:47.765Z,5.78
2023-05-14T18:59:16.167Z,12.40
2023-05-14T19:01:45.926Z,9.68
2023-05-14T19:04:14.428Z,6.35
2023-05-14T19:06:42.665Z,6.78
2023-05-14T19:09:11.523Z,8.15
2023-05-14T19:11:39.682Z,8.07
2023-05-14T19:14:09.112Z,7.80
2023-05-14T19:16:37.394Z,9.65
2023-05-14T19:19:07.040Z,8.50
2023-05-14T19:21:35.396Z,6.93
2023-05-14T19:24:03.596Z,14.77
2023-05-14T19:26:31.822Z,20.15
2023-05-14T19:29:00.012Z,8.55
2023-05-14T19:31:28.927Z,11.35
2023-05-14T19:33:57.388Z,15.95
2023-05-14T19:36:27.190Z,22.23
2023-05-14T19:38:55.390Z,9.23
2023-05-14T19:41:23.567Z,8.18
2023-05-14T19:43:52.069Z,12.70
2023-05-14T19:46:20.357Z,7.32
2023-05-14T19:48:48.610Z,6.68
2023-05-14T19:51:18.403Z,7.85
2023-05-14T19:53:48.029Z,5.57
2023-05-14T19:56:16.243Z,6.30
2023-05-14T19:58:44.886Z,5.97
2023-05-14T20:01:13.240Z,6.72
2023-05-14T20:03:41.608Z,5.32
2023-05-14T20:06:10.910Z,6.70
2023-05-14T20:08:39.210Z,6.60
2023-05-14T20:11:10.167Z,11.07
2023-05-14T20:13:38.519Z,8.68
2023-05-14T20:16:07.419Z,7.40
2023-05-14T20:18:35.779Z,9.13
2023-05-14T20:21:04.140Z,7.88
2023-05-14T20:23:32.504Z,5.25
2023-05-14T20:26:01.954Z,6.13
2023-05-14T20:28:31.700Z,8.10
2023-05-14T20:31:00.301Z,11.85
2023-05-14T20:33:29.285Z,11.73
2023-05-14T20:35:57.801Z,11.05
2023-05-14T20:38:29.575Z,11.27
2023-05-14T20:40:57.853Z,12.02
2023-05-14T20:43:27.783Z,6.38
2023-05-14T20:45:58.915Z,6.43
2023-05-14T20:48:27.582Z,7.03
2023-05-14T20:50:55.856Z,5.22
2023-05-14T20:53:25.470Z,9.10
2023-05-14T20:55:53.713Z,6.28
2023-05-14T20:58:22.050Z,8.60
2023-05-14T21:00:50.211Z,6.60
2023-05-14T21:03:20.165Z,10.40
2023-05-14T21:05:48.479Z,7.13
2023-05-14T21:08:17.278Z,5.13
2023-05-14T21:10:45.505Z,6.97
2023-05-14T21:13:13.735Z,8.77
2023-05-14T21:15:42.016Z,7.90
2023-05-14T21:18:10.326Z,6.10
2023-05-14T21:20:40.081Z,4.35
2023-05-14T21:23:08.385Z,6.15
2023-05-14T21:25:36.942Z,8.68
2023-05-14T21:28:05.287Z,7.45
2023-05-14T21:30:33.503Z,6.57
2023-05-14T21:33:01.802Z,11.68
2023-05-14T21:35:30.041Z,23.30
2023-05-14T21:37:59.788Z,16.85
2023-05-14T21:40:27.972Z,10.73
2023-05-14T21:42:56.268Z,6.70
2023-05-14T21:45:37.441Z,9.35
2023-05-14T21:48:06.378Z,14.38
2023-05-14T21:50:34.653Z,9.70
2023-05-14T21:53:04.367Z,6.88
2023-05-14T21:55:32.784Z,6.63
2023-05-14T21:58:01.270Z,6.20
2023-05-14T22:00:29.582Z,9.13
2023-05-14T22:02:58.097Z,8.73
2023-05-14T22:05:26.872Z,9.60
2023-05-14T22:07:55.331Z,6.32
2023-05-14T22:10:25.238Z,6.05
2023-05-14T22:12:53.454Z,6.30
2023-05-14T22:15:21.891Z,6.20
2023-05-14T22:17:50.256Z,6.55
2023-05-14T22:20:18.767Z,5.10
2023-05-14T22:22:47.012Z,6.50
2023-05-14T22:25:15.275Z,8.85
2023-05-14T22:27:45.033Z,7.97
2023-05-14T22:30:13.549Z,8.75
2023-05-14T22:32:42.492Z,7.78
2023-05-14T22:35:11.344Z,8.38
2023-05-14T22:37:39.449Z,9.43
2023-05-14T22:40:09.213Z,15.90
2023-05-14T22:42:37.378Z,6.00
2023-05-14T22:45:08.506Z,7.82
2023-05-14T22:47:36.718Z,22.00
2023-05-14T22:50:07.438Z,7.70
2023-05-14T22:52:35.977Z,8.32
2023-05-14T22:55:04.167Z,8.98
2023-05-14T22:57:32.540Z,6.43
2023-05-14T23:00:00.867Z,8.75
2023-05-14T23:02:30.539Z,9.48
2023-05-14T23:04:58.834Z,6.78
2023-05-14T23:07:27.108Z,7.95
2023-05-14T23:09:55.582Z,9.38
2023-05-14T23:12:23.842Z,11.07
2023-05-14T23:14:52.100Z,9.73
2023-05-14T23:17:20.466Z,9.82
2023-05-14T23:19:50.182Z,12.48
2023-05-14T23:22:18.805Z,6.43
2023-05-14T23:24:47.060Z,7.55
2023-05-14T23:27:15.255Z,4.85
2023-05-14T23:29:44.213Z,5.00
2023-05-14T23:32:13.026Z,2.10
2023-05-14T23:34:41.460Z,5.07
2023-05-14T23:37:11.496Z,9.80
2023-05-14T23:39:39.954Z,4.13
2023-05-14T23:42:09.295Z,5.88
2023-05-14T23:44:37.617Z,2.53
2023-05-14T23:47:07.476Z,3.97
2023-05-14T23:49:36.197Z,7.70
2023-05-14T23:52:04.530Z,1.77
2023-05-14T23:54:34.180Z,2.20
2023-05-14T23:57:04.508Z,1.08
2023-05-14T23:59:32.807Z,1.92
